Time;durP1;ratioP1;P1;durP2;ratioP2;P2;SDS_P1;SDS_P2;PMS_P1;PMS_P2;Temp;Humidity;BMP_temperature;BMP_pressure;BME280_temperature;BME280_humidity;BME280_pressure;Samples;Min_cycle;Max_cycle;Signal;HPM_P1;HPM_P2
2019/06/23 00:01:35;;;;;;;2.70;2.50;;;;;;;22.19;56.60;100642.33;;;;-47
2019/06/23 00:04:35;;;;;;;3.33;2.45;;;;;;;22.19;56.61;100649.56;;;;-48
2019/06/23 00:07:35;;;;;;;2.55;2.35;;;;;;;22.19;56.68;100648.41;;;;-47
2019/06/23 00:10:35;;;;;;;2.99;2.45;;;;;;;22.18;56.61;100647.06;;;;-48
2019/06/23 00:13:35;;;;;;;3.55;2.49;;;;;;;22.18;56.67;100645.38;;;;-48
2019/06/23 00:16:35;;;;;;;4.04;2.53;;;;;;;22.18;56.65;100643.16;;;;-48
2019/06/23 00:19:35;;;;;;;3.23;2.49;;;;;;;22.17;56.69;100642.08;;;;-47
2019/06/23 00:22:35;;;;;;;2.61;2.41;;;;;;;22.17;56.62;100650.73;;;;-47
2019/06/23 00:25:35;;;;;;;2.61;2.41;;;;;;;22.16;56.71;100639.86;;;;-48
2019/06/23 00:28:35;;;;;;;3.06;2.23;;;;;;;22.16;56.69;100637.84;;;;-48
2019/06/23 00:31:42;;;;;;;3.03;2.30;;;;;;;22.16;56.68;100634.88;;;;-48
2019/06/23 00:34:35;;;;;;;2.51;2.30;;;;;;;22.16;56.70;100637.13;;;;-48
2019/06/23 00:37:35;;;;;;;2.98;2.44;;;;;;;22.15;56.65;100643.32;;;;-48
2019/06/23 00:40:35;;;;;;;2.71;2.41;;;;;;;22.15;56.67;100645.34;;;;-48
2019/06/23 00:43:35;;;;;;;2.67;2.46;;;;;;;22.14;56.67;100645.57;;;;-48
2019/06/23 00:46:35;;;;;;;2.74;2.39;;;;;;;22.14;56.70;100643.22;;;;-48
2019/06/23 00:49:35;;;;;;;3.40;2.62;;;;;;;22.14;56.70;100634.54;;;;-48
2019/06/23 00:52:35;;;;;;;2.73;2.33;;;;;;;22.13;56.71;100631.07;;;;-48
2019/06/23 00:55:35;;;;;;;2.59;2.38;;;;;;;22.13;56.64;100623.66;;;;-48
2019/06/23 00:58:35;;;;;;;2.77;2.38;;;;;;;22.13;56.68;100625.41;;;;-48
2019/06/23 01:01:45;;;;;;;2.48;2.28;;;;;;;22.12;56.73;100632.38;;;;-47
2019/06/23 01:04:35;;;;;;;2.83;2.59;;;;;;;22.12;56.70;100623.87;;;;-48
2019/06/23 01:07:35;;;;;;;3.00;2.27;;;;;;;22.12;56.72;100618.42;;;;-48
2019/06/23 01:10:35;;;;;;;3.46;2.40;;;;;;;22.11;56.68;100616.09;;;;-48
2019/06/23 01:13:35;;;;;;;2.55;2.30;;;;;;;22.11;56.72;100615.69;;;;-47
2019/06/23 01:16:35;;;;;;;2.98;2.32;;;;;;;22.11;56.69;100621.24;;;;-48
2019/06/23 01:19:35;;;;;;;2.50;2.30;;;;;;;22.10;56.68;100621.98;;;;-48
2019/06/23 01:22:35;;;;;;;2.65;2.45;;;;;;;22.11;56.73;100622.08;;;;-48
2019/06/23 01:25:35;;;;;;;2.66;2.46;;;;;;;22.10;56.73;100621.88;;;;-48
2019/06/23 01:28:35;;;;;;;2.57;2.37;;;;;;;22.10;56.76;100627.66;;;;-48
2019/06/23 01:31:35;;;;;;;3.20;2.47;;;;;;;22.09;56.72;100623.42;;;;-48
2019/06/23 01:34:35;;;;;;;2.43;2.21;;;;;;;22.09;56.74;100617.63;;;;-48
2019/06/23 01:37:35;;;;;;;2.40;2.20;;;;;;;22.08;56.69;100623.42;;;;-47
2019/06/23 01:40:36;;;;;;;2.59;2.39;;;;;;;22.08;56.75;100621.97;;;;-48
2019/06/23 01:43:35;;;;;;;2.40;2.20;;;;;;;22.08;56.73;100633.58;;;;-48
2019/06/23 01:46:35;;;;;;;2.66;2.46;;;;;;;22.08;56.72;100638.69;;;;-48
2019/06/23 01:49:35;;;;;;;2.99;2.39;;;;;;;22.08;56.77;100637.11;;;;-48
2019/06/23 01:52:35;;;;;;;2.65;2.45;;;;;;;22.07;56.70;100640.50;;;;-47
2019/06/23 01:55:35;;;;;;;2.87;2.44;;;;;;;22.07;56.75;100640.77;;;;-48
2019/06/23 01:58:35;;;;;;;2.39;2.19;;;;;;;22.07;56.74;100645.72;;;;-48
2019/06/23 02:01:35;;;;;;;2.65;2.45;;;;;;;22.06;56.74;100650.93;;;;-48
2019/06/23 02:04:35;;;;;;;2.41;2.21;;;;;;;22.06;56.72;100645.45;;;;-48
2019/06/23 02:07:35;;;;;;;2.43;2.23;;;;;;;22.06;56.79;100642.15;;;;-48
2019/06/23 02:10:35;;;;;;;2.62;2.37;;;;;;;22.05;56.70;100643.05;;;;-48
2019/06/23 02:13:35;;;;;;;3.23;2.22;;;;;;;22.05;56.75;100644.16;;;;-48
2019/06/23 02:16:35;;;;;;;2.41;2.21;;;;;;;22.05;56.74;100644.47;;;;-48
2019/06/23 02:19:35;;;;;;;2.37;2.16;;;;;;;22.05;56.75;100643.80;;;;-48
2019/06/23 02:22:37;;;;;;;2.70;2.34;;;;;;;22.04;56.75;100642.78;;;;-47
2019/06/23 02:25:35;;;;;;;2.42;2.22;;;;;;;22.04;56.73;100639.66;;;;-49
2019/06/23 02:28:35;;;;;;;2.58;2.38;;;;;;;22.03;56.81;100640.29;;;;-47
2019/06/23 02:31:35;;;;;;;2.57;2.37;;;;;;;22.03;56.75;100639.22;;;;-47
2019/06/23 02:34:35;;;;;;;2.50;2.29;;;;;;;22.03;56.79;100641.57;;;;-48
2019/06/23 02:37:35;;;;;;;2.53;2.33;;;;;;;22.03;56.75;100639.78;;;;-48
2019/06/23 02:40:35;;;;;;;2.51;2.31;;;;;;;22.02;56.75;100636.22;;;;-48
2019/06/23 02:43:35;;;;;;;2.61;2.41;;;;;;;22.02;56.73;100640.86;;;;-48
2019/06/23 02:46:39;;;;;;;2.51;2.31;;;;;;;22.03;56.78;100641.70;;;;-49
2019/06/23 02:49:37;;;;;;;2.59;2.39;;;;;;;22.03;56.78;100645.44;;;;-47
2019/06/23 02:52:37;;;;;;;2.59;2.39;;;;;;;22.03;56.76;100649.38;;;;-48
2019/06/23 02:55:39;;;;;;;2.67;2.39;;;;;;;22.02;56.77;100647.82;;;;-48
2019/06/23 02:58:42;;;;;;;2.39;2.17;;;;;;;22.02;56.74;100648.05;;;;-48
2019/06/23 03:01:35;;;;;;;2.53;2.33;;;;;;;22.01;56.71;100649.80;;;;-49
2019/06/23 03:04:35;;;;;;;2.55;2.29;;;;;;;22.01;56.69;100637.63;;;;-48
2019/06/23 03:07:35;;;;;;;2.52;2.32;;;;;;;22.01;56.73;100645.77;;;;-48
2019/06/23 03:10:35;;;;;;;2.56;2.27;;;;;;;22.01;56.74;100648.19;;;;-47
2019/06/23 03:13:35;;;;;;;2.50;2.30;;;;;;;22.01;56.69;100649.36;;;;-49
2019/06/23 03:16:35;;;;;;;2.60;2.40;;;;;;;22.00;56.71;100650.37;;;;-47
2019/06/23 03:19:35;;;;;;;2.61;2.39;;;;;;;22.00;56.66;100646.80;;;;-48
2019/06/23 03:22:35;;;;;;;2.30;2.10;;;;;;;22.00;56.73;100647.07;;;;-48
2019/06/23 03:25:35;;;;;;;2.37;2.17;;;;;;;21.99;56.76;100654.10;;;;-48
2019/06/23 03:28:35;;;;;;;2.57;2.37;;;;;;;21.99;56.67;100655.05;;;;-48
2019/06/23 03:31:35;;;;;;;2.46;2.26;;;;;;;21.99;56.70;100654.88;;;;-48
2019/06/23 03:34:35;;;;;;;2.40;2.20;;;;;;;21.99;56.68;100655.05;;;;-48
2019/06/23 03:37:35;;;;;;;2.30;2.10;;;;;;;21.98;56.71;100658.13;;;;-48
2019/06/23 03:40:35;;;;;;;2.44;2.24;;;;;;;21.98;56.71;100659.64;;;;-48
2019/06/23 03:43:35;;;;;;;2.40;2.20;;;;;;;21.97;56.78;100662.13;;;;-48
2019/06/23 03:46:35;;;;;;;2.39;2.19;;;;;;;21.98;56.72;100674.52;;;;-48
2019/06/23 03:49:35;;;;;;;2.37;2.17;;;;;;;21.98;56.68;100673.67;;;;-48
2019/06/23 03:52:35;;;;;;;2.50;2.28;;;;;;;21.97;56.68;100671.28;;;;-49
2019/06/23 03:55:35;;;;;;;2.51;2.31;;;;;;;21.97;56.65;100671.58;;;;-48
2019/06/23 03:58:35;;;;;;;2.52;2.30;;;;;;;21.96;56.66;100672.92;;;;-47
2019/06/23 04:01:35;;;;;;;2.40;2.20;;;;;;;21.96;56.73;100667.27;;;;-48
2019/06/23 04:04:35;;;;;;;2.31;2.10;;;;;;;21.95;56.70;100664.75;;;;-48
2019/06/23 04:07:35;;;;;;;2.41;2.21;;;;;;;21.95;56.71;100661.45;;;;-47
2019/06/23 04:10:35;;;;;;;2.31;2.11;;;;;;;21.96;56.63;100662.73;;;;-48
2019/06/23 04:13:35;;;;;;;2.31;2.15;;;;;;;21.96;56.63;100669.19;;;;-48
2019/06/23 04:16:35;;;;;;;2.43;2.23;;;;;;;21.96;56.66;100665.83;;;;-48
2019/06/23 04:19:35;;;;;;;2.40;2.20;;;;;;;21.94;56.67;100665.55;;;;-49
2019/06/23 04:22:35;;;;;;;2.42;2.22;;;;;;;21.95;56.66;100672.98;;;;-48
2019/06/23 04:25:35;;;;;;;2.27;2.07;;;;;;;21.95;56.66;100673.83;;;;-48
2019/06/23 04:28:35;;;;;;;2.22;2.03;;;;;;;21.95;56.61;100667.50;;;;-48
2019/06/23 04:31:35;;;;;;;2.26;2.06;;;;;;;21.94;56.66;100667.70;;;;-48
2019/06/23 04:34:35;;;;;;;2.37;2.17;;;;;;;21.94;56.62;100668.98;;;;-48
2019/06/23 04:37:35;;;;;;;2.31;2.11;;;;;;;21.94;56.63;100665.38;;;;-48
2019/06/23 04:40:35;;;;;;;2.72;2.31;;;;;;;21.94;56.67;100668.98;;;;-48
2019/06/23 04:43:35;;;;;;;2.41;2.21;;;;;;;21.94;56.60;100666.92;;;;-48
2019/06/23 04:46:35;;;;;;;2.20;2.00;;;;;;;21.94;56.59;100671.91;;;;-48
2019/06/23 04:49:35;;;;;;;2.85;2.09;;;;;;;21.93;56.59;100675.16;;;;-48
2019/06/23 04:52:35;;;;;;;2.34;2.14;;;;;;;21.93;56.63;100674.59;;;;-48
2019/06/23 04:55:35;;;;;;;2.35;2.19;;;;;;;21.94;56.63;100675.67;;;;-48
2019/06/23 04:58:35;;;;;;;2.23;2.12;;;;;;;21.93;56.63;100681.35;;;;-48
2019/06/23 05:01:35;;;;;;;2.27;2.07;;;;;;;21.93;56.64;100682.16;;;;-48
2019/06/23 05:04:35;;;;;;;2.19;1.91;;;;;;;21.92;56.56;100681.85;;;;-48
2019/06/23 05:07:35;;;;;;;2.21;2.00;;;;;;;21.93;56.57;100686.90;;;;-48
2019/06/23 05:10:35;;;;;;;2.17;2.01;;;;;;;21.93;56.57;100688.18;;;;-48
2019/06/23 05:13:35;;;;;;;2.17;2.01;;;;;;;21.92;56.58;100687.34;;;;-51
2019/06/23 05:16:35;;;;;;;2.33;2.13;;;;;;;21.91;56.63;100682.32;;;;-51
2019/06/23 05:19:35;;;;;;;3.70;2.63;;;;;;;21.91;57.56;100690.29;;;;-50
2019/06/23 05:22:35;;;;;;;5.97;3.96;;;;;;;21.87;58.39;100691.58;;;;-55
2019/06/23 05:25:35;;;;;;;6.48;5.69;;;;;;;21.69;61.74;100697.20;;;;-53
2019/06/23 05:28:35;;;;;;;8.55;6.31;;;;;;;21.67;62.06;100700.55;;;;-52
2019/06/23 05:31:35;;;;;;;7.47;6.77;;;;;;;21.50;63.46;100705.09;;;;-53
2019/06/23 05:34:35;;;;;;;7.46;6.86;;;;;;;21.47;64.23;100707.42;;;;-53
2019/06/23 05:37:35;;;;;;;8.51;7.35;;;;;;;21.45;65.26;100707.34;;;;-52
2019/06/23 05:40:35;;;;;;;8.89;7.47;;;;;;;21.36;65.74;100711.95;;;;-52
2019/06/23 05:43:35;;;;;;;8.42;7.64;;;;;;;21.34;66.05;100709.18;;;;-52
2019/06/23 05:46:35;;;;;;;8.68;7.77;;;;;;;21.33;66.39;100705.50;;;;-52
2019/06/23 05:49:35;;;;;;;8.07;7.31;;;;;;;21.37;65.64;100702.04;;;;-52
2019/06/23 05:52:35;;;;;;;8.13;7.34;;;;;;;21.36;66.28;100712.42;;;;-52
2019/06/23 05:55:35;;;;;;;7.85;7.11;;;;;;;21.34;66.62;100707.84;;;;-52
2019/06/23 05:58:35;;;;;;;8.45;7.47;;;;;;;21.35;67.19;100710.73;;;;-52
2019/06/23 06:01:35;;;;;;;8.05;7.35;;;;;;;21.36;67.05;100710.91;;;;-53
2019/06/23 06:04:35;;;;;;;8.81;7.21;;;;;;;21.40;67.08;100712.14;;;;-53
2019/06/23 06:07:35;;;;;;;7.35;6.71;;;;;;;21.43;66.65;100718.86;;;;-48
2019/06/23 06:10:35;;;;;;;9.67;6.91;;;;;;;21.45;66.29;100716.58;;;;-52
2019/06/23 06:13:35;;;;;;;7.72;7.01;;;;;;;21.47;66.00;100723.05;;;;-52
2019/06/23 06:16:35;;;;;;;7.61;6.91;;;;;;;21.47;65.96;100725.20;;;;-48
2019/06/23 06:19:35;;;;;;;7.13;6.46;;;;;;;21.48;65.66;100727.92;;;;-61
2019/06/23 06:22:35;;;;;;;8.51;6.89;;;;;;;21.45;65.60;100730.86;;;;-62
2019/06/23 06:25:35;;;;;;;7.51;6.83;;;;;;;21.47;65.55;100730.11;;;;-61
2019/06/23 06:28:35;;;;;;;7.53;6.58;;;;;;;21.50;65.33;100731.07;;;;-63
2019/06/23 06:31:35;;;;;;;8.51;6.49;;;;;;;21.50;65.87;100731.64;;;;-52
2019/06/23 06:34:35;;;;;;;7.77;6.50;;;;;;;21.51;65.69;100728.09;;;;-53
2019/06/23 06:37:35;;;;;;;7.13;6.48;;;;;;;21.53;65.52;100731.20;;;;-52
2019/06/23 06:40:35;;;;;;;7.75;6.91;;;;;;;21.54;65.99;100730.19;;;;-48
2019/06/23 06:43:35;;;;;;;7.68;6.96;;;;;;;21.54;66.07;100732.71;;;;-49
2019/06/23 06:46:35;;;;;;;7.45;6.85;;;;;;;21.58;65.81;100735.16;;;;-48
2019/06/23 06:49:35;;;;;;;7.85;7.05;;;;;;;21.57;65.99;100734.44;;;;-48
2019/06/23 06:52:35;;;;;;;7.89;6.95;;;;;;;21.59;65.61;100733.62;;;;-52
2019/06/23 06:55:35;;;;;;;7.50;6.77;;;;;;;21.62;65.06;100733.10;;;;-64
2019/06/23 06:58:35;;;;;;;7.83;6.95;;;;;;;21.63;65.45;100734.79;;;;-62
2019/06/23 07:01:35;;;;;;;7.85;7.11;;;;;;;21.64;65.38;100733.55;;;;-63
2019/06/23 07:04:35;;;;;;;7.89;6.53;;;;;;;21.67;65.31;100741.91;;;;-61
2019/06/23 07:07:35;;;;;;;7.07;6.43;;;;;;;21.67;65.35;100741.73;;;;-63
2019/06/23 07:10:35;;;;;;;7.44;6.49;;;;;;;21.69;65.32;100744.11;;;;-64
2019/06/23 07:13:35;;;;;;;8.76;6.17;;;;;;;21.72;64.70;100751.29;;;;-62
2019/06/23 07:16:35;;;;;;;6.83;6.13;;;;;;;21.74;64.83;100751.30;;;;-61
2019/06/23 07:19:35;;;;;;;10.15;6.61;;;;;;;21.71;65.55;100751.08;;;;-52
2019/06/23 07:22:35;;;;;;;6.95;6.32;;;;;;;21.74;65.21;100754.63;;;;-52
2019/06/23 07:25:35;;;;;;;7.13;6.31;;;;;;;21.76;64.88;100761.37;;;;-52
2019/06/23 07:28:36;;;;;;;7.22;5.96;;;;;;;21.78;64.04;100764.47;;;;-50
2019/06/23 07:31:35;;;;;;;6.61;5.89;;;;;;;21.80;63.72;100764.38;;;;-50
2019/06/23 07:34:35;;;;;;;6.13;5.58;;;;;;;21.82;63.60;100764.96;;;;-49
2019/06/23 07:37:36;;;;;;;6.52;5.42;;;;;;;21.83;63.28;100764.00;;;;-49
2019/06/23 07:40:36;;;;;;;6.49;5.25;;;;;;;21.84;63.13;100761.02;;;;-49
2019/06/23 07:43:35;;;;;;;7.29;5.69;;;;;;;21.85;63.03;100760.45;;;;-49
2019/06/23 07:46:36;;;;;;;5.93;5.41;;;;;;;21.87;62.85;100766.91;;;;-50
2019/06/23 07:49:35;;;;;;;6.64;5.51;;;;;;;21.88;62.69;100766.17;;;;-49
2019/06/23 07:52:35;;;;;;;6.89;5.17;;;;;;;21.89;62.65;100764.06;;;;-49
2019/06/23 07:55:36;;;;;;;5.48;4.98;;;;;;;21.90;62.51;100767.97;;;;-49
2019/06/23 07:58:36;;;;;;;6.91;5.32;;;;;;;21.92;62.46;100766.41;;;;-50
2019/06/23 08:01:35;;;;;;;5.70;4.71;;;;;;;21.92;62.23;100767.89;;;;-49
2019/06/23 08:04:35;;;;;;;6.13;5.09;;;;;;;21.93;62.15;100766.11;;;;-49
2019/06/23 08:07:36;;;;;;;7.71;5.10;;;;;;;21.91;62.20;100768.52;;;;-49
2019/06/23 08:10:36;;;;;;;5.99;5.14;;;;;;;21.91;62.12;100769.05;;;;-49
2019/06/23 08:13:35;;;;;;;5.83;5.11;;;;;;;21.90;62.03;100770.06;;;;-49
2019/06/23 08:16:36;;;;;;;5.64;5.16;;;;;;;21.90;61.93;100766.30;;;;-50
2019/06/23 08:19:35;;;;;;;6.93;4.91;;;;;;;21.91;61.92;100766.67;;;;-49
2019/06/23 08:22:34;;;;;;;8.61;5.38;;;;;;;21.93;62.09;100760.19;;;;-53
2019/06/23 08:25:35;;;;;;;7.24;5.17;;;;;;;21.96;61.92;100764.41;;;;-49
2019/06/23 08:28:35;;;;;;;7.27;5.03;;;;;;;22.00;62.00;100768.50;;;;-56
2019/06/23 08:31:35;;;;;;;9.53;5.09;;;;;;;22.02;62.05;100767.06;;;;-51
2019/06/23 08:34:35;;;;;;;8.94;4.75;;;;;;;22.03;62.12;100774.00;;;;-51
2019/06/23 08:37:35;;;;;;;8.33;5.01;;;;;;;22.05;61.91;100773.34;;;;-51
2019/06/23 08:40:35;;;;;;;7.34;4.43;;;;;;;22.05;61.82;100770.55;;;;-50
2019/06/23 08:43:35;;;;;;;8.69;4.68;;;;;;;22.07;61.78;100777.52;;;;-47
2019/06/23 08:46:35;;;;;;;6.63;4.57;;;;;;;22.08;61.82;100772.58;;;;-52
2019/06/23 08:49:35;;;;;;;7.01;4.40;;;;;;;22.10;61.76;100774.27;;;;-54
2019/06/23 08:52:35;;;;;;;8.33;4.61;;;;;;;22.10;61.55;100782.52;;;;-54
2019/06/23 08:55:35;;;;;;;6.42;4.50;;;;;;;22.11;61.56;100784.00;;;;-50
2019/06/23 08:58:35;;;;;;;6.52;4.52;;;;;;;22.12;61.40;100778.56;;;;-50
2019/06/23 09:01:34;;;;;;;9.14;4.71;;;;;;;22.12;61.43;100776.20;;;;-51
2019/06/23 09:04:35;;;;;;;6.82;4.44;;;;;;;22.13;61.37;100770.59;;;;-53
2019/06/23 09:07:35;;;;;;;7.43;4.31;;;;;;;22.14;61.31;100772.34;;;;-55
2019/06/23 09:10:35;;;;;;;5.49;4.48;;;;;;;22.15;61.20;100764.31;;;;-53
2019/06/23 09:13:35;;;;;;;5.87;4.61;;;;;;;22.17;61.10;100766.30;;;;-48
2019/06/23 09:16:35;;;;;;;6.97;4.45;;;;;;;22.19;61.09;100764.66;;;;-50
2019/06/23 09:19:34;;;;;;;5.99;4.39;;;;;;;22.19;61.04;100766.28;;;;-47
2019/06/23 09:22:35;;;;;;;6.65;4.23;;;;;;;22.20;61.03;100764.53;;;;-47
2019/06/23 09:25:35;;;;;;;4.77;4.34;;;;;;;22.20;61.03;100764.84;;;;-51
2019/06/23 09:28:35;;;;;;;5.89;4.31;;;;;;;22.22;60.96;100764.61;;;;-49
2019/06/23 09:31:35;;;;;;;4.98;4.25;;;;;;;22.24;60.83;100764.28;;;;-54
2019/06/23 09:34:35;;;;;;;4.67;4.17;;;;;;;22.24;60.87;100770.95;;;;-52
2019/06/23 09:37:35;;;;;;;5.71;4.19;;;;;;;22.25;60.65;100769.36;;;;-52
2019/06/23 09:40:34;;;;;;;5.59;4.04;;;;;;;22.26;60.67;100770.18;;;;-51
2019/06/23 09:43:35;;;;;;;9.20;4.42;;;;;;;22.26;60.67;100765.27;;;;-52
2019/06/23 09:46:35;;;;;;;5.19;4.27;;;;;;;22.27;60.74;100767.53;;;;-52
2019/06/23 09:49:35;;;;;;;5.45;4.23;;;;;;;22.27;60.61;100764.12;;;;-53
2019/06/23 09:52:35;;;;;;;5.82;4.19;;;;;;;22.25;60.88;100763.98;;;;-52
2019/06/23 09:55:35;;;;;;;5.88;4.11;;;;;;;22.26;60.72;100761.39;;;;-52
2019/06/23 09:58:35;;;;;;;6.09;4.18;;;;;;;22.27;60.68;100759.68;;;;-51
2019/06/23 10:01:34;;;;;;;9.54;4.33;;;;;;;22.28;60.66;100758.03;;;;-51
2019/06/23 10:04:35;;;;;;;8.20;4.24;;;;;;;22.29;60.58;100761.44;;;;-52
2019/06/23 10:07:35;;;;;;;4.89;4.06;;;;;;;22.30;60.46;100763.94;;;;-49
2019/06/23 10:10:35;;;;;;;7.95;4.40;;;;;;;22.32;60.48;100763.64;;;;-51
2019/06/23 10:13:35;;;;;;;12.29;4.47;;;;;;;22.31;60.54;100764.11;;;;-51
2019/06/23 10:16:35;;;;;;;5.76;4.00;;;;;;;22.32;60.51;100760.72;;;;-51
2019/06/23 10:19:35;;;;;;;6.65;4.32;;;;;;;22.33;60.40;100767.38;;;;-49
2019/06/23 10:22:35;;;;;;;10.47;4.32;;;;;;;22.33;60.41;100766.54;;;;-52
2019/06/23 10:25:35;;;;;;;8.03;3.73;;;;;;;22.33;60.24;100767.15;;;;-50
2019/06/23 10:28:35;;;;;;;6.97;4.34;;;;;;;22.34;60.24;100764.39;;;;-52
2019/06/23 10:31:35;;;;;;;8.84;3.97;;;;;;;22.34;60.24;100766.75;;;;-51
2019/06/23 10:34:35;;;;;;;8.73;4.35;;;;;;;22.35;60.32;100766.81;;;;-57
2019/06/23 10:37:35;;;;;;;7.83;4.11;;;;;;;22.35;60.30;100763.28;;;;-50
2019/06/23 10:40:35;;;;;;;5.69;4.17;;;;;;;22.36;60.19;100759.22;;;;-51
2019/06/23 10:43:34;;;;;;;6.63;4.03;;;;;;;22.37;60.17;100755.62;;;;-52
2019/06/23 10:46:34;;;;;;;8.81;4.05;;;;;;;22.37;60.14;100755.11;;;;-50
2019/06/23 10:49:36;;;;;;;7.93;4.06;;;;;;;22.37;60.10;100753.94;;;;-47
2019/06/23 10:52:35;;;;;;;7.45;3.93;;;;;;;22.37;60.01;100756.13;;;;-50
2019/06/23 10:55:35;;;;;;;5.27;4.25;;;;;;;22.38;60.10;100753.30;;;;-51
2019/06/23 10:58:35;;;;;;;5.93;4.19;;;;;;;22.38;59.90;100754.58;;;;-57
2019/06/23 11:01:35;;;;;;;8.34;3.89;;;;;;;22.37;59.95;100753.36;;;;-59
2019/06/23 11:04:34;;;;;;;5.43;3.84;;;;;;;22.36;59.96;100747.50;;;;-59
2019/06/23 11:07:34;;;;;;;7.36;3.97;;;;;;;22.36;60.03;100750.53;;;;-58
2019/06/23 11:10:34;;;;;;;6.37;3.95;;;;;;;22.34;59.86;100744.63;;;;-57
2019/06/23 11:13:34;;;;;;;8.45;4.07;;;;;;;22.32;59.97;100742.03;;;;-57
2019/06/23 11:16:35;;;;;;;4.64;4.15;;;;;;;22.32;59.93;100744.05;;;;-59
2019/06/23 11:19:35;;;;;;;6.19;4.04;;;;;;;22.31;59.88;100742.67;;;;-59
2019/06/23 11:22:35;;;;;;;6.21;4.10;;;;;;;22.30;59.97;100739.61;;;;-59
2019/06/23 11:25:35;;;;;;;7.74;4.07;;;;;;;22.32;59.90;100736.72;;;;-48
2019/06/23 11:28:36;;;;;;;9.49;4.25;;;;;;;22.31;60.04;100738.53;;;;-48
2019/06/23 11:31:35;;;;;;;7.65;4.25;;;;;;;22.32;59.90;100734.63;;;;-58
2019/06/23 11:34:35;;;;;;;6.95;4.39;;;;;;;22.31;59.90;100729.28;;;;-59
2019/06/23 11:37:35;;;;;;;9.11;3.86;;;;;;;22.31;59.87;100726.86;;;;-61
2019/06/23 11:40:35;;;;;;;4.91;4.18;;;;;;;22.30;59.87;100727.72;;;;-52
2019/06/23 11:43:35;;;;;;;6.23;4.12;;;;;;;22.29;60.04;100727.55;;;;-52
2019/06/23 11:46:34;;;;;;;6.17;4.38;;;;;;;22.29;59.92;100726.52;;;;-52
2019/06/23 11:49:34;;;;;;;5.53;3.97;;;;;;;22.28;59.76;100720.34;;;;-61
2019/06/23 11:52:34;;;;;;;5.35;4.13;;;;;;;22.27;59.80;100723.23;;;;-60
2019/06/23 11:55:35;;;;;;;6.37;3.89;;;;;;;22.26;59.80;100723.14;;;;-61
2019/06/23 11:58:35;;;;;;;5.13;3.88;;;;;;;22.26;59.81;100723.80;;;;-60
2019/06/23 12:01:35;;;;;;;6.41;4.01;;;;;;;22.25;59.83;100723.77;;;;-49
2019/06/23 12:04:35;;;;;;;6.67;3.98;;;;;;;22.25;59.70;100721.59;;;;-47
2019/06/23 12:07:35;;;;;;;7.30;3.97;;;;;;;22.25;59.72;100718.55;;;;-60
2019/06/23 12:10:34;;;;;;;5.35;4.01;;;;;;;22.25;59.62;100718.99;;;;-60
2019/06/23 12:13:35;;;;;;;5.91;3.79;;;;;;;22.24;59.64;100721.21;;;;-60
2019/06/23 12:16:35;;;;;;;5.67;4.05;;;;;;;22.24;59.54;100716.67;;;;-50
2019/06/23 12:19:35;;;;;;;5.08;3.77;;;;;;;22.24;59.58;100717.17;;;;-51
2019/06/23 12:22:35;;;;;;;6.56;4.01;;;;;;;22.25;59.58;100713.73;;;;-48
2019/06/23 12:25:35;;;;;;;6.65;4.17;;;;;;;22.24;59.52;100713.91;;;;-46
2019/06/23 12:28:35;;;;;;;6.17;4.03;;;;;;;22.26;59.69;100711.69;;;;-53
2019/06/23 12:31:34;;;;;;;5.00;3.79;;;;;;;22.29;59.58;100713.25;;;;-62
2019/06/23 12:34:35;;;;;;;7.41;3.97;;;;;;;22.30;59.59;100708.98;;;;-61
2019/06/23 12:37:35;;;;;;;6.11;3.87;;;;;;;22.32;59.65;100706.87;;;;-50
2019/06/23 12:40:35;;;;;;;6.25;3.96;;;;;;;22.34;59.62;100704.14;;;;-50
2019/06/23 12:43:34;;;;;;;5.74;3.91;;;;;;;22.35;59.61;100706.17;;;;-49
2019/06/23 12:46:35;;;;;;;6.11;3.84;;;;;;;22.37;59.69;100704.63;;;;-47
2019/06/23 12:49:34;;;;;;;6.37;3.87;;;;;;;22.37;59.68;100697.33;;;;-54
2019/06/23 12:52:35;;;;;;;5.93;3.95;;;;;;;22.37;59.71;100696.65;;;;-48
2019/06/23 12:55:35;;;;;;;5.26;3.91;;;;;;;22.38;59.72;100689.34;;;;-54
2019/06/23 12:58:35;;;;;;;4.57;3.70;;;;;;;22.40;59.69;100685.05;;;;-54
2019/06/23 13:01:35;;;;;;;9.07;4.16;;;;;;;22.42;59.66;100676.70;;;;-54
2019/06/23 13:04:34;;;;;;;7.69;3.79;;;;;;;22.43;59.70;100669.00;;;;-51
2019/06/23 13:07:34;;;;;;;7.65;3.68;;;;;;;22.43;59.68;100674.89;;;;-52
2019/06/23 13:10:35;;;;;;;7.88;3.76;;;;;;;22.44;59.63;100671.39;;;;-54
2019/06/23 13:13:34;;;;;;;7.45;4.11;;;;;;;22.44;59.70;100667.19;;;;-53
2019/06/23 13:16:35;;;;;;;5.03;4.05;;;;;;;22.43;59.43;100671.52;;;;-52
2019/06/23 13:19:35;;;;;;;5.36;3.85;;;;;;;22.42;59.63;100670.75;;;;-53
2019/06/23 13:22:35;;;;;;;5.50;3.69;;;;;;;22.43;59.61;100669.10;;;;-51
2019/06/23 13:25:34;;;;;;;5.81;3.97;;;;;;;22.44;59.65;100672.64;;;;-50
2019/06/23 13:28:34;;;;;;;4.79;3.90;;;;;;;22.44;59.51;100676.17;;;;-52
2019/06/23 13:31:35;;;;;;;5.21;3.81;;;;;;;22.44;59.70;100676.04;;;;-53
2019/06/23 13:34:35;;;;;;;5.89;3.84;;;;;;;22.45;59.52;100678.39;;;;-51
2019/06/23 13:37:35;;;;;;;5.43;4.01;;;;;;;22.45;59.48;100677.22;;;;-54
2019/06/23 13:40:35;;;;;;;4.05;3.61;;;;;;;22.47;59.58;100678.23;;;;-54
2019/06/23 13:43:34;;;;;;;8.90;3.93;;;;;;;22.48;59.59;100677.22;;;;-52
2019/06/23 13:46:34;;;;;;;6.22;4.03;;;;;;;22.50;59.60;100682.55;;;;-53
2019/06/23 13:49:35;;;;;;;5.95;4.02;;;;;;;22.50;59.58;100677.46;;;;-52
2019/06/23 13:52:35;;;;;;;7.73;3.93;;;;;;;22.49;59.61;100677.09;;;;-53
2019/06/23 13:55:35;;;;;;;9.04;3.82;;;;;;;22.51;59.60;100683.05;;;;-58
2019/06/23 13:58:35;;;;;;;5.83;3.60;;;;;;;22.52;59.46;100685.28;;;;-52
2019/06/23 14:01:34;;;;;;;5.87;3.88;;;;;;;22.51;59.57;100686.73;;;;-54
2019/06/23 14:04:34;;;;;;;5.64;3.67;;;;;;;22.51;59.54;100683.83;;;;-55
2019/06/23 14:07:34;;;;;;;8.12;4.09;;;;;;;22.52;59.47;100678.24;;;;-52
2019/06/23 14:10:34;;;;;;;6.69;3.95;;;;;;;22.52;59.39;100680.36;;;;-54
2019/06/23 14:13:35;;;;;;;6.10;3.89;;;;;;;22.54;59.44;100680.84;;;;-55
2019/06/23 14:16:35;;;;;;;6.55;3.71;;;;;;;22.54;59.40;100680.23;;;;-49
2019/06/23 14:19:35;;;;;;;7.23;4.00;;;;;;;22.54;59.36;100678.81;;;;-54
2019/06/23 14:22:34;;;;;;;7.68;3.90;;;;;;;22.55;59.38;100682.36;;;;-53
2019/06/23 14:25:35;;;;;;;5.15;3.80;;;;;;;22.54;59.27;100674.34;;;;-52
2019/06/23 14:28:34;;;;;;;4.99;3.67;;;;;;;22.55;59.31;100680.87;;;;-53
2019/06/23 14:31:34;;;;;;;5.24;3.85;;;;;;;22.56;59.49;100676.87;;;;-52
2019/06/23 14:34:34;;;;;;;7.51;3.99;;;;;;;22.57;59.41;100670.58;;;;-55
2019/06/23 14:37:35;;;;;;;6.10;3.94;;;;;;;22.57;59.36;100664.62;;;;-48
2019/06/23 14:40:34;;;;;;;7.96;3.98;;;;;;;22.57;59.37;100661.59;;;;-48
2019/06/23 14:43:34;;;;;;;5.45;3.77;;;;;;;22.57;59.39;100665.45;;;;-53
2019/06/23 14:46:34;;;;;;;11.13;4.17;;;;;;;22.58;59.44;100654.34;;;;-53
2019/06/23 14:49:34;;;;;;;6.23;4.13;;;;;;;22.58;59.42;100655.13;;;;-51
2019/06/23 14:52:35;;;;;;;6.29;3.87;;;;;;;22.58;59.30;100647.98;;;;-58
2019/06/23 14:55:35;;;;;;;6.81;4.00;;;;;;;22.58;59.42;100645.86;;;;-52
2019/06/23 14:58:35;;;;;;;6.97;3.93;;;;;;;22.58;59.37;100643.34;;;;-51
2019/06/23 15:01:34;;;;;;;6.90;4.13;;;;;;;22.58;59.34;100633.34;;;;-52
2019/06/23 15:04:34;;;;;;;6.39;4.05;;;;;;;22.60;59.32;100633.04;;;;-53
2019/06/23 15:07:35;;;;;;;5.50;3.97;;;;;;;22.62;59.38;100634.80;;;;-59
2019/06/23 15:10:34;;;;;;;5.33;3.93;;;;;;;22.60;59.29;100629.03;;;;-53
2019/06/23 15:13:35;;;;;;;4.75;3.89;;;;;;;22.61;59.36;100626.27;;;;-53
2019/06/23 15:16:35;;;;;;;6.37;3.90;;;;;;;22.58;59.37;100623.75;;;;-60
2019/06/23 15:19:35;;;;;;;5.95;3.97;;;;;;;22.56;59.38;100621.48;;;;-52
2019/06/23 15:22:34;;;;;;;5.93;3.94;;;;;;;22.55;59.36;100622.94;;;;-59
2019/06/23 15:25:35;;;;;;;6.71;4.34;;;;;;;22.54;59.46;100622.33;;;;-59
2019/06/23 15:28:34;;;;;;;6.19;4.17;;;;;;;22.52;59.48;100620.81;;;;-52
2019/06/23 15:31:35;;;;;;;5.59;3.89;;;;;;;22.52;59.47;100620.91;;;;-52
2019/06/23 15:34:35;;;;;;;4.63;4.03;;;;;;;22.51;59.39;100621.41;;;;-59
2019/06/23 15:37:36;;;;;;;5.41;3.73;;;;;;;22.51;59.37;100621.05;;;;-50
2019/06/23 15:40:35;;;;;;;5.33;4.12;;;;;;;22.50;59.36;100619.06;;;;-54
2019/06/23 15:43:34;;;;;;;4.13;3.79;;;;;;;22.49;59.46;100619.46;;;;-60
2019/06/23 15:46:34;;;;;;;5.67;4.16;;;;;;;22.49;59.46;100620.20;;;;-52
2019/06/23 15:49:34;;;;;;;13.65;4.54;;;;;;;22.50;59.47;100623.09;;;;-51
2019/06/23 15:52:35;;;;;;;10.05;4.27;;;;;;;22.52;59.47;100617.38;;;;-59
2019/06/23 15:55:34;;;;;;;7.43;4.01;;;;;;;22.54;59.47;100626.44;;;;-58
2019/06/23 15:58:35;;;;;;;4.90;3.90;;;;;;;22.54;59.39;100623.61;;;;-58
2019/06/23 16:01:35;;;;;;;6.60;4.07;;;;;;;22.55;59.33;100623.10;;;;-58
2019/06/23 16:04:34;;;;;;;8.89;4.19;;;;;;;22.55;59.32;100628.92;;;;-60
2019/06/23 16:07:34;;;;;;;12.69;4.14;;;;;;;22.55;59.33;100626.73;;;;-60
2019/06/23 16:10:34;;;;;;;7.13;4.33;;;;;;;22.57;59.27;100632.46;;;;-59
2019/06/23 16:13:35;;;;;;;8.37;3.90;;;;;;;22.58;59.26;100625.90;;;;-57
2019/06/23 16:16:35;;;;;;;4.88;3.67;;;;;;;22.58;59.18;100624.48;;;;-57
2019/06/23 16:19:34;;;;;;;5.31;4.00;;;;;;;22.60;59.22;100626.23;;;;-58
2019/06/23 16:22:34;;;;;;;6.39;3.87;;;;;;;22.61;59.11;100622.06;;;;-53
2019/06/23 16:25:34;;;;;;;9.22;3.97;;;;;;;22.63;59.06;100631.22;;;;-51
2019/06/23 16:28:34;;;;;;;6.85;4.31;;;;;;;22.63;59.18;100627.59;;;;-53
2019/06/23 16:31:34;;;;;;;7.19;4.11;;;;;;;22.64;59.21;100628.39;;;;-53
2019/06/23 16:34:35;;;;;;;4.87;3.69;;;;;;;22.64;59.16;100623.24;;;;-54
2019/06/23 16:37:34;;;;;;;4.93;3.91;;;;;;;22.64;59.14;100622.00;;;;-51
2019/06/23 16:40:34;;;;;;;4.09;3.69;;;;;;;22.64;59.04;100622.41;;;;-51